sensor_id;sensor_type;location;lat;lon;timestamp;pressure;altitude;pressure_sealevel;temperature
70831;BMP180;58451;51.550;7.208;2023-02-27T00:00:19;101975.20;;;-2.10
70831;BMP180;58451;51.550;7.208;2023-02-27T00:01:51;101977.40;;;-2.10
70831;BMP180;58451;51.550;7.208;2023-02-27T00:03:23;101976.00;;;-2.10
70831;BMP180;58451;51.550;7.208;2023-02-27T00:04:55;101977.60;;;-2.10
70831;BMP180;58451;51.550;7.208;2023-02-27T00:06:28;101979.20;;;-2.10
70831;BMP180;58451;51.550;7.208;2023-02-27T00:08:00;101981.00;;;-2.20
70831;BMP180;58451;51.550;7.208;2023-02-27T00:09:32;101977.80;;;-2.20
70831;BMP180;58451;51.550;7.208;2023-02-27T00:11:04;101982.40;;;-2.20
70831;BMP180;58451;51.550;7.208;2023-02-27T00:12:37;101979.80;;;-2.20
70831;BMP180;58451;51.550;7.208;2023-02-27T00:14:09;101972.80;;;-2.28
70831;BMP180;58451;51.550;7.208;2023-02-27T00:15:45;101975.00;;;-2.30
70831;BMP180;58451;51.550;7.208;2023-02-27T00:17:18;101973.60;;;-2.30
70831;BMP180;58451;51.550;7.208;2023-02-27T00:18:49;101976.80;;;-2.30
70831;BMP180;58451;51.550;7.208;2023-02-27T00:20:21;101972.40;;;-2.30
70831;BMP180;58451;51.550;7.208;2023-02-27T00:21:53;101975.00;;;-2.30
70831;BMP180;58451;51.550;7.208;2023-02-27T00:23:25;101974.60;;;-2.30
70831;BMP180;58451;51.550;7.208;2023-02-27T00:24:58;101977.20;;;-2.30
70831;BMP180;58451;51.550;7.208;2023-02-27T00:26:30;101970.60;;;-2.30
70831;BMP180;58451;51.550;7.208;2023-02-27T00:28:03;101970.60;;;-2.34
70831;BMP180;58451;51.550;7.208;2023-02-27T00:29:36;101972.60;;;-2.34
70831;BMP180;58451;51.550;7.208;2023-02-27T00:31:07;101971.20;;;-2.34
70831;BMP180;58451;51.550;7.208;2023-02-27T00:32:40;101969.00;;;-2.32
70831;BMP180;58451;51.550;7.208;2023-02-27T00:34:13;101971.80;;;-2.36
70831;BMP180;58451;51.550;7.208;2023-02-27T00:36:00;101970.20;;;-2.38
70831;BMP180;58451;51.550;7.208;2023-02-27T00:37:33;101965.00;;;-2.32
70831;BMP180;58451;51.550;7.208;2023-02-27T00:39:06;101967.40;;;-2.34
70831;BMP180;58451;51.550;7.208;2023-02-27T00:40:38;101968.20;;;-2.38
70831;BMP180;58451;51.550;7.208;2023-02-27T00:42:10;101966.40;;;-2.40
70831;BMP180;58451;51.550;7.208;2023-02-27T00:43:42;101972.40;;;-2.40
70831;BMP180;58451;51.550;7.208;2023-02-27T00:45:15;101971.60;;;-2.40
70831;BMP180;58451;51.550;7.208;2023-02-27T00:46:47;101968.00;;;-2.40
70831;BMP180;58451;51.550;7.208;2023-02-27T00:48:19;101965.20;;;-2.40
70831;BMP180;58451;51.550;7.208;2023-02-27T00:49:51;101969.60;;;-2.40
70831;BMP180;58451;51.550;7.208;2023-02-27T00:51:23;101966.20;;;-2.40
70831;BMP180;58451;51.550;7.208;2023-02-27T00:52:55;101968.40;;;-2.40
70831;BMP180;58451;51.550;7.208;2023-02-27T00:54:27;101961.00;;;-2.40
70831;BMP180;58451;51.550;7.208;2023-02-27T00:55:59;101965.80;;;-2.40
70831;BMP180;58451;51.550;7.208;2023-02-27T00:57:32;101965.20;;;-2.38
70831;BMP180;58451;51.550;7.208;2023-02-27T00:59:04;101968.20;;;-2.30
70831;BMP180;58451;51.550;7.208;2023-02-27T01:00:36;101969.00;;;-2.30
70831;BMP180;58451;51.550;7.208;2023-02-27T01:02:10;101969.40;;;-2.40
70831;BMP180;58451;51.550;7.208;2023-02-27T01:03:47;101971.60;;;-2.40
70831;BMP180;58451;51.550;7.208;2023-02-27T01:05:20;101969.60;;;-2.40
70831;BMP180;58451;51.550;7.208;2023-02-27T01:06:52;101965.80;;;-2.40
70831;BMP180;58451;51.550;7.208;2023-02-27T01:08:24;101965.80;;;-2.40
70831;BMP180;58451;51.550;7.208;2023-02-27T01:09:56;101965.40;;;-2.40
70831;BMP180;58451;51.550;7.208;2023-02-27T01:11:29;101965.80;;;-2.48
70831;BMP180;58451;51.550;7.208;2023-02-27T01:13:03;101968.60;;;-2.40
70831;BMP180;58451;51.550;7.208;2023-02-27T01:14:37;101965.20;;;-2.40
70831;BMP180;58451;51.550;7.208;2023-02-27T01:16:09;101968.40;;;-2.42
70831;BMP180;58451;51.550;7.208;2023-02-27T01:17:43;101967.40;;;-2.42
70831;BMP180;58451;51.550;7.208;2023-02-27T01:19:15;101965.40;;;-2.40
70831;BMP180;58451;51.550;7.208;2023-02-27T01:20:53;101969.60;;;-2.40
70831;BMP180;58451;51.550;7.208;2023-02-27T01:22:25;101965.20;;;-2.40
70831;BMP180;58451;51.550;7.208;2023-02-27T01:23:57;101959.80;;;-2.40
70831;BMP180;58451;51.550;7.208;2023-02-27T01:25:29;101962.80;;;-2.40
70831;BMP180;58451;51.550;7.208;2023-02-27T01:27:01;101961.20;;;-2.50
70831;BMP180;58451;51.550;7.208;2023-02-27T01:28:33;101961.00;;;-2.48
70831;BMP180;58451;51.550;7.208;2023-02-27T01:30:05;101962.20;;;-2.40
70831;BMP180;58451;51.550;7.208;2023-02-27T01:31:38;101959.40;;;-2.40
70831;BMP180;58451;51.550;7.208;2023-02-27T01:33:10;101959.60;;;-2.40
70831;BMP180;58451;51.550;7.208;2023-02-27T01:34:43;101972.80;;;-2.40
70831;BMP180;58451;51.550;7.208;2023-02-27T01:36:15;101963.40;;;-2.42
70831;BMP180;58451;51.550;7.208;2023-02-27T01:37:47;101975.60;;;-2.50
70831;BMP180;58451;51.550;7.208;2023-02-27T01:39:19;101966.40;;;-2.50
70831;BMP180;58451;51.550;7.208;2023-02-27T01:40:51;101972.20;;;-2.50
70831;BMP180;58451;51.550;7.208;2023-02-27T01:42:27;101969.60;;;-2.50
70831;BMP180;58451;51.550;7.208;2023-02-27T01:44:08;101967.40;;;-2.58
70831;BMP180;58451;51.550;7.208;2023-02-27T01:45:44;101968.40;;;-2.60
70831;BMP180;58451;51.550;7.208;2023-02-27T01:47:19;101966.00;;;-2.60
70831;BMP180;58451;51.550;7.208;2023-02-27T01:48:57;101966.40;;;-2.60
70831;BMP180;58451;51.550;7.208;2023-02-27T01:50:30;101964.20;;;-2.64
70831;BMP180;58451;51.550;7.208;2023-02-27T01:52:08;101968.20;;;-2.70
70831;BMP180;58451;51.550;7.208;2023-02-27T01:53:45;101970.80;;;-2.70
70831;BMP180;58451;51.550;7.208;2023-02-27T01:55:19;101969.00;;;-2.72
70831;BMP180;58451;51.550;7.208;2023-02-27T01:56:51;101963.60;;;-2.80
70831;BMP180;58451;51.550;7.208;2023-02-27T01:58:23;101962.80;;;-2.80
70831;BMP180;58451;51.550;7.208;2023-02-27T01:59:57;101965.60;;;-2.80
70831;BMP180;58451;51.550;7.208;2023-02-27T02:01:33;101960.80;;;-2.82
70831;BMP180;58451;51.550;7.208;2023-02-27T02:04:53;101961.40;;;-2.90
70831;BMP180;58451;51.550;7.208;2023-02-27T02:06:29;101958.40;;;-2.90
70831;BMP180;58451;51.550;7.208;2023-02-27T02:08:03;101960.20;;;-2.90
70831;BMP180;58451;51.550;7.208;2023-02-27T02:09:43;101962.40;;;-3.00
70831;BMP180;58451;51.550;7.208;2023-02-27T02:11:19;101961.00;;;-3.00
70831;BMP180;58451;51.550;7.208;2023-02-27T02:12:52;101966.00;;;-3.00
70831;BMP180;58451;51.550;7.208;2023-02-27T02:14:24;101964.40;;;-3.10
70831;BMP180;58451;51.550;7.208;2023-02-27T02:16:24;101966.20;;;-3.10
70831;BMP180;58451;51.550;7.208;2023-02-27T02:18:26;101964.60;;;-3.10
70831;BMP180;58451;51.550;7.208;2023-02-27T02:30:36;101965.60;;;-3.20
70831;BMP180;58451;51.550;7.208;2023-02-27T02:32:46;101960.00;;;-3.20
70831;BMP180;58451;51.550;7.208;2023-02-27T02:37:34;101962.00;;;-3.20
70831;BMP180;58451;51.550;7.208;2023-02-27T02:43:44;101973.20;;;-3.20
70831;BMP180;58451;51.550;7.208;2023-02-27T02:48:19;101977.20;;;-3.20
70831;BMP180;58451;51.550;7.208;2023-02-27T02:50:16;101978.00;;;-3.20
70831;BMP180;58451;51.550;7.208;2023-02-27T02:52:09;101976.60;;;-3.20
70831;BMP180;58451;51.550;7.208;2023-02-27T02:54:13;101980.60;;;-3.20
70831;BMP180;58451;51.550;7.208;2023-02-27T02:56:14;101983.40;;;-3.20
70831;BMP180;58451;51.550;7.208;2023-02-27T02:58:24;101982.60;;;-3.24
70831;BMP180;58451;51.550;7.208;2023-02-27T03:00:35;101983.40;;;-3.26
70831;BMP180;58451;51.550;7.208;2023-02-27T03:02:15;101986.40;;;-3.26
70831;BMP180;58451;51.550;7.208;2023-02-27T03:04:11;101985.40;;;-3.30
70831;BMP180;58451;51.550;7.208;2023-02-27T03:06:03;101983.80;;;-3.30
70831;BMP180;58451;51.550;7.208;2023-02-27T03:07:43;101987.40;;;-3.30
70831;BMP180;58451;51.550;7.208;2023-02-27T03:09:33;101987.20;;;-3.30
70831;BMP180;58451;51.550;7.208;2023-02-27T03:11:16;101988.40;;;-3.26
70831;BMP180;58451;51.550;7.208;2023-02-27T03:13:01;101988.00;;;-3.24
70831;BMP180;58451;51.550;7.208;2023-02-27T03:14:56;101984.40;;;-3.28
70831;BMP180;58451;51.550;7.208;2023-02-27T03:16:47;101984.40;;;-3.26
70831;BMP180;58451;51.550;7.208;2023-02-27T03:18:31;101984.80;;;-3.20
70831;BMP180;58451;51.550;7.208;2023-02-27T03:20:13;101982.00;;;-3.20
70831;BMP180;58451;51.550;7.208;2023-02-27T03:21:59;101984.80;;;-3.20
70831;BMP180;58451;51.550;7.208;2023-02-27T03:23:41;101976.20;;;-3.20
70831;BMP180;58451;51.550;7.208;2023-02-27T03:25:17;101979.00;;;-3.20
70831;BMP180;58451;51.550;7.208;2023-02-27T03:26:56;101973.20;;;-3.20
70831;BMP180;58451;51.550;7.208;2023-02-27T03:28:40;101973.80;;;-3.20
70831;BMP180;58451;51.550;7.208;2023-02-27T03:30:39;101975.40;;;-3.20
70831;BMP180;58451;51.550;7.208;2023-02-27T03:34:28;101975.40;;;-3.10
70831;BMP180;58451;51.550;7.208;2023-02-27T03:38:08;101976.20;;;-3.10
70831;BMP180;58451;51.550;7.208;2023-02-27T03:41:47;101979.80;;;-3.10
70831;BMP180;58451;51.550;7.208;2023-02-27T03:44:15;101984.80;;;-3.10
70831;BMP180;58451;51.550;7.208;2023-02-27T03:46:15;101978.80;;;-3.10
70831;BMP180;58451;51.550;7.208;2023-02-27T03:47:48;101976.00;;;-3.10
70831;BMP180;58451;51.550;7.208;2023-02-27T03:49:20;101979.00;;;-3.10
70831;BMP180;58451;51.550;7.208;2023-02-27T03:50:53;101979.60;;;-3.10
70831;BMP180;58451;51.550;7.208;2023-02-27T03:52:27;101975.80;;;-3.14
70831;BMP180;58451;51.550;7.208;2023-02-27T03:54:35;101976.60;;;-3.16
70831;BMP180;58451;51.550;7.208;2023-02-27T03:56:13;101978.00;;;-3.20
70831;BMP180;58451;51.550;7.208;2023-02-27T03:57:48;101973.60;;;-3.20
70831;BMP180;58451;51.550;7.208;2023-02-27T03:59:23;101975.60;;;-3.20
70831;BMP180;58451;51.550;7.208;2023-02-27T04:00:58;101969.20;;;-3.20
70831;BMP180;58451;51.550;7.208;2023-02-27T04:02:31;101975.60;;;-3.20
70831;BMP180;58451;51.550;7.208;2023-02-27T04:04:10;101970.60;;;-3.20
70831;BMP180;58451;51.550;7.208;2023-02-27T04:06:01;101973.20;;;-3.20
70831;BMP180;58451;51.550;7.208;2023-02-27T04:17:27;101987.40;;;-3.28
70831;BMP180;58451;51.550;7.208;2023-02-27T04:20:57;101990.00;;;-3.30
70831;BMP180;58451;51.550;7.208;2023-02-27T04:22:37;101983.80;;;-3.30
70831;BMP180;58451;51.550;7.208;2023-02-27T04:26:36;101989.20;;;-3.30
70831;BMP180;58451;51.550;7.208;2023-02-27T04:28:15;101993.80;;;-3.30
70831;BMP180;58451;51.550;7.208;2023-02-27T04:30:10;101988.60;;;-3.30
70831;BMP180;58451;51.550;7.208;2023-02-27T04:32:05;101989.60;;;-3.30
70831;BMP180;58451;51.550;7.208;2023-02-27T04:34:20;101991.20;;;-3.30
70831;BMP180;58451;51.550;7.208;2023-02-27T04:36:26;101999.20;;;-3.30
70831;BMP180;58451;51.550;7.208;2023-02-27T04:38:30;102001.20;;;-3.30
70831;BMP180;58451;51.550;7.208;2023-02-27T04:40:33;102008.40;;;-3.30
70831;BMP180;58451;51.550;7.208;2023-02-27T04:42:21;102007.80;;;-3.30
70831;BMP180;58451;51.550;7.208;2023-02-27T04:43:56;102010.40;;;-3.38
70831;BMP180;58451;51.550;7.208;2023-02-27T04:45:31;102010.20;;;-3.40
70831;BMP180;58451;51.550;7.208;2023-02-27T04:47:10;102013.80;;;-3.40
70831;BMP180;58451;51.550;7.208;2023-02-27T04:49:12;102012.80;;;-3.40
70831;BMP180;58451;51.550;7.208;2023-02-27T04:51:14;102015.00;;;-3.40
70831;BMP180;58451;51.550;7.208;2023-02-27T04:52:54;102016.40;;;-3.40
70831;BMP180;58451;51.550;7.208;2023-02-27T04:54:38;102012.00;;;-3.48
70831;BMP180;58451;51.550;7.208;2023-02-27T04:56:20;102018.00;;;-3.50
70831;BMP180;58451;51.550;7.208;2023-02-27T04:58:13;102016.80;;;-3.50
70831;BMP180;58451;51.550;7.208;2023-02-27T04:59:53;102022.60;;;-3.50
70831;BMP180;58451;51.550;7.208;2023-02-27T05:01:44;102025.60;;;-3.50
70831;BMP180;58451;51.550;7.208;2023-02-27T05:03:28;102021.00;;;-3.56
70831;BMP180;58451;51.550;7.208;2023-02-27T05:05:10;102023.20;;;-3.56
70831;BMP180;58451;51.550;7.208;2023-02-27T05:06:47;102026.00;;;-3.58
70831;BMP180;58451;51.550;7.208;2023-02-27T05:08:32;102022.00;;;-3.60
70831;BMP180;58451;51.550;7.208;2023-02-27T05:10:13;102023.40;;;-3.60
70831;BMP180;58451;51.550;7.208;2023-02-27T05:11:57;102026.80;;;-3.60
70831;BMP180;58451;51.550;7.208;2023-02-27T05:13:38;102023.00;;;-3.60
70831;BMP180;58451;51.550;7.208;2023-02-27T05:15:21;102024.40;;;-3.70
70831;BMP180;58451;51.550;7.208;2023-02-27T05:17:57;102024.00;;;-3.70
70831;BMP180;58451;51.550;7.208;2023-02-27T05:19:19;102025.60;;;-3.70
70831;BMP180;58451;51.550;7.208;2023-02-27T05:22:53;102037.80;;;-3.70
70831;BMP180;58451;51.550;7.208;2023-02-27T05:24:48;102034.40;;;-3.74
70831;BMP180;58451;51.550;7.208;2023-02-27T05:30:36;102028.80;;;-3.80
70831;BMP180;58451;51.550;7.208;2023-02-27T05:36:05;102041.20;;;-3.80
70831;BMP180;58451;51.550;7.208;2023-02-27T05:37:45;102045.40;;;-3.80
70831;BMP180;58451;51.550;7.208;2023-02-27T05:39:23;102042.00;;;-3.80
70831;BMP180;58451;51.550;7.208;2023-02-27T05:41:11;102040.40;;;-3.80
70831;BMP180;58451;51.550;7.208;2023-02-27T05:43:04;102046.00;;;-3.82
70831;BMP180;58451;51.550;7.208;2023-02-27T05:44:44;102042.00;;;-3.88
70831;BMP180;58451;51.550;7.208;2023-02-27T05:46:27;102035.20;;;-3.90
70831;BMP180;58451;51.550;7.208;2023-02-27T05:48:16;102036.60;;;-3.90
70831;BMP180;58451;51.550;7.208;2023-02-27T05:50:10;102043.20;;;-3.90
70831;BMP180;58451;51.550;7.208;2023-02-27T05:51:47;102042.80;;;-3.90
70831;BMP180;58451;51.550;7.208;2023-02-27T05:53:32;102043.60;;;-3.90
70831;BMP180;58451;51.550;7.208;2023-02-27T05:55:12;102049.00;;;-3.90
70831;BMP180;58451;51.550;7.208;2023-02-27T05:56:54;102053.20;;;-3.88
70831;BMP180;58451;51.550;7.208;2023-02-27T05:58:29;102056.60;;;-3.82
70831;BMP180;58451;51.550;7.208;2023-02-27T06:00:14;102062.20;;;-3.80
70831;BMP180;58451;51.550;7.208;2023-02-27T06:01:51;102063.40;;;-3.80
70831;BMP180;58451;51.550;7.208;2023-02-27T06:03:29;102066.80;;;-3.82
70831;BMP180;58451;51.550;7.208;2023-02-27T06:05:03;102072.80;;;-3.84
70831;BMP180;58451;51.550;7.208;2023-02-27T06:06:35;102069.00;;;-3.88
70831;BMP180;58451;51.550;7.208;2023-02-27T06:08:09;102073.60;;;-3.90
70831;BMP180;58451;51.550;7.208;2023-02-27T06:09:43;102079.40;;;-3.88
70831;BMP180;58451;51.550;7.208;2023-02-27T06:11:16;102078.40;;;-3.88
70831;BMP180;58451;51.550;7.208;2023-02-27T06:12:49;102077.20;;;-3.90
70831;BMP180;58451;51.550;7.208;2023-02-27T06:14:24;102086.20;;;-3.90
70831;BMP180;58451;51.550;7.208;2023-02-27T06:15:57;102085.40;;;-3.90
70831;BMP180;58451;51.550;7.208;2023-02-27T06:17:29;102090.60;;;-3.90
70831;BMP180;58451;51.550;7.208;2023-02-27T06:19:01;102085.60;;;-3.90
70831;BMP180;58451;51.550;7.208;2023-02-27T06:20:35;102088.20;;;-3.90
70831;BMP180;58451;51.550;7.208;2023-02-27T06:22:09;102091.00;;;-3.90
70831;BMP180;58451;51.550;7.208;2023-02-27T06:23:41;102092.60;;;-3.90
70831;BMP180;58451;51.550;7.208;2023-02-27T06:25:13;102100.00;;;-3.90
70831;BMP180;58451;51.550;7.208;2023-02-27T06:26:46;102099.00;;;-3.90
70831;BMP180;58451;51.550;7.208;2023-02-27T06:28:18;102104.20;;;-3.86
70831;BMP180;58451;51.550;7.208;2023-02-27T06:29:50;102100.80;;;-3.88
70831;BMP180;58451;51.550;7.208;2023-02-27T06:31:23;102100.60;;;-3.80
70831;BMP180;58451;51.550;7.208;2023-02-27T06:32:55;102110.00;;;-3.80
70831;BMP180;58451;51.550;7.208;2023-02-27T06:34:26;102105.60;;;-3.80
70831;BMP180;58451;51.550;7.208;2023-02-27T06:36:00;102105.60;;;-3.80
70831;BMP180;58451;51.550;7.208;2023-02-27T06:37:32;102104.20;;;-3.80
70831;BMP180;58451;51.550;7.208;2023-02-27T06:39:04;102102.60;;;-3.80
70831;BMP180;58451;51.550;7.208;2023-02-27T06:40:37;102103.40;;;-3.78
70831;BMP180;58451;51.550;7.208;2023-02-27T06:42:10;102103.00;;;-3.78
70831;BMP180;58451;51.550;7.208;2023-02-27T06:43:42;102100.20;;;-3.78
70831;BMP180;58451;51.550;7.208;2023-02-27T06:45:16;102105.20;;;-3.80
70831;BMP180;58451;51.550;7.208;2023-02-27T06:46:48;102102.20;;;-3.78
70831;BMP180;58451;51.550;7.208;2023-02-27T06:48:20;102103.20;;;-3.70
70831;BMP180;58451;51.550;7.208;2023-02-27T06:49:57;102101.00;;;-3.70
70831;BMP180;58451;51.550;7.208;2023-02-27T06:51:29;102098.40;;;-3.70
70831;BMP180;58451;51.550;7.208;2023-02-27T06:53:01;102104.60;;;-3.70
70831;BMP180;58451;51.550;7.208;2023-02-27T06:54:33;102106.20;;;-3.70
70831;BMP180;58451;51.550;7.208;2023-02-27T06:56:05;102102.00;;;-3.60
70831;BMP180;58451;51.550;7.208;2023-02-27T06:57:38;102105.20;;;-3.60
70831;BMP180;58451;51.550;7.208;2023-02-27T06:59:10;102106.20;;;-3.60
70831;BMP180;58451;51.550;7.208;2023-02-27T07:00:42;102107.00;;;-3.50
70831;BMP180;58451;51.550;7.208;2023-02-27T07:02:16;102106.20;;;-3.50
70831;BMP180;58451;51.550;7.208;2023-02-27T07:03:49;102106.20;;;-3.44
70831;BMP180;58451;51.550;7.208;2023-02-27T07:05:21;102112.20;;;-3.40
70831;BMP180;58451;51.550;7.208;2023-02-27T07:06:53;102116.40;;;-3.40
70831;BMP180;58451;51.550;7.208;2023-02-27T07:08:45;102113.60;;;-3.30
70831;BMP180;58451;51.550;7.208;2023-02-27T07:10:37;102119.60;;;-3.30
70831;BMP180;58451;51.550;7.208;2023-02-27T07:12:10;102123.80;;;-3.20
70831;BMP180;58451;51.550;7.208;2023-02-27T07:13:42;102126.60;;;-3.14
70831;BMP180;58451;51.550;7.208;2023-02-27T07:15:14;102125.80;;;-3.10
70831;BMP180;58451;51.550;7.208;2023-02-27T07:16:46;102130.40;;;-3.00
70831;BMP180;58451;51.550;7.208;2023-02-27T07:18:21;102134.40;;;-2.98
70831;BMP180;58451;51.550;7.208;2023-02-27T07:19:56;102135.20;;;-2.90
70831;BMP180;58451;51.550;7.208;2023-02-27T07:21:28;102131.00;;;-2.66
70831;BMP180;58451;51.550;7.208;2023-02-27T07:23:00;102126.40;;;-1.96
70831;BMP180;58451;51.550;7.208;2023-02-27T07:24:32;102129.20;;;-1.60
70831;BMP180;58451;51.550;7.208;2023-02-27T07:26:04;102123.60;;;-1.34
70831;BMP180;58451;51.550;7.208;2023-02-27T07:27:36;102121.20;;;-0.84
70831;BMP180;58451;51.550;7.208;2023-02-27T07:29:08;102136.60;;;-0.42
70831;BMP180;58451;51.550;7.208;2023-02-27T07:30:40;102141.00;;;-0.26
70831;BMP180;58451;51.550;7.208;2023-02-27T07:32:12;102140.60;;;0.00
70831;BMP180;58451;51.550;7.208;2023-02-27T07:33:44;102151.80;;;-0.02
70831;BMP180;58451;51.550;7.208;2023-02-27T07:35:17;102148.60;;;-0.14
70831;BMP180;58451;51.550;7.208;2023-02-27T07:36:50;102149.40;;;-0.20
70831;BMP180;58451;51.550;7.208;2023-02-27T07:38:21;102148.40;;;-0.30
70831;BMP180;58451;51.550;7.208;2023-02-27T07:39:55;102149.80;;;-0.30
70831;BMP180;58451;51.550;7.208;2023-02-27T07:41:26;102154.00;;;-0.30
70831;BMP180;58451;51.550;7.208;2023-02-27T07:43:03;102156.20;;;-0.30
70831;BMP180;58451;51.550;7.208;2023-02-27T07:44:36;102154.40;;;-0.30
70831;BMP180;58451;51.550;7.208;2023-02-27T07:46:08;102155.80;;;-0.30
70831;BMP180;58451;51.550;7.208;2023-02-27T07:47:40;102154.60;;;-0.30
70831;BMP180;58451;51.550;7.208;2023-02-27T07:49:12;102151.00;;;-0.40
70831;BMP180;58451;51.550;7.208;2023-02-27T07:50:44;102150.00;;;-0.40
70831;BMP180;58451;51.550;7.208;2023-02-27T07:52:16;102156.60;;;-0.40
70831;BMP180;58451;51.550;7.208;2023-02-27T07:53:48;102151.00;;;-0.50
70831;BMP180;58451;51.550;7.208;2023-02-27T07:55:20;102150.00;;;-0.50
70831;BMP180;58451;51.550;7.208;2023-02-27T07:56:52;102153.80;;;-0.52
70831;BMP180;58451;51.550;7.208;2023-02-27T07:58:24;102152.40;;;-0.58
70831;BMP180;58451;51.550;7.208;2023-02-27T07:59:56;102160.60;;;-0.58
70831;BMP180;58451;51.550;7.208;2023-02-27T08:01:28;102162.80;;;-0.54
70831;BMP180;58451;51.550;7.208;2023-02-27T08:03:00;102157.20;;;-0.52
70831;BMP180;58451;51.550;7.208;2023-02-27T08:04:32;102160.20;;;-0.50
70831;BMP180;58451;51.550;7.208;2023-02-27T08:06:04;102160.00;;;-0.50
70831;BMP180;58451;51.550;7.208;2023-02-27T08:07:36;102165.00;;;-0.50
70831;BMP180;58451;51.550;7.208;2023-02-27T08:09:08;102166.40;;;-0.50
70831;BMP180;58451;51.550;7.208;2023-02-27T08:10:41;102167.00;;;-0.44
70831;BMP180;58451;51.550;7.208;2023-02-27T08:12:13;102171.40;;;-0.40
70831;BMP180;58451;51.550;7.208;2023-02-27T08:13:45;102173.40;;;-0.40
70831;BMP180;58451;51.550;7.208;2023-02-27T08:15:34;102169.80;;;-0.40
70831;BMP180;58451;51.550;7.208;2023-02-27T08:17:05;102162.40;;;-0.40
70831;BMP180;58451;51.550;7.208;2023-02-27T08:18:38;102162.00;;;-0.30
70831;BMP180;58451;51.550;7.208;2023-02-27T08:20:10;102163.80;;;-0.20
70831;BMP180;58451;51.550;7.208;2023-02-27T08:21:43;102161.80;;;-0.20
70831;BMP180;58451;51.550;7.208;2023-02-27T08:23:15;102166.80;;;-0.20
70831;BMP180;58451;51.550;7.208;2023-02-27T08:24:47;102171.80;;;-0.10
70831;BMP180;58451;51.550;7.208;2023-02-27T08:26:19;102169.00;;;-0.10
70831;BMP180;58451;51.550;7.208;2023-02-27T08:27:52;102167.00;;;-0.10
70831;BMP180;58451;51.550;7.208;2023-02-27T08:29:24;102172.80;;;-0.10
70831;BMP180;58451;51.550;7.208;2023-02-27T08:30:57;102172.60;;;0.00
70831;BMP180;58451;51.550;7.208;2023-02-27T08:32:29;102170.00;;;0.00
70831;BMP180;58451;51.550;7.208;2023-02-27T08:34:01;102171.00;;;0.10
70831;BMP180;58451;51.550;7.208;2023-02-27T08:35:41;102166.00;;;0.10
70831;BMP180;58451;51.550;7.208;2023-02-27T08:37:13;102172.00;;;0.14
70831;BMP180;58451;51.550;7.208;2023-02-27T08:38:46;102173.60;;;0.20
70831;BMP180;58451;51.550;7.208;2023-02-27T08:40:18;102175.60;;;0.30
70831;BMP180;58451;51.550;7.208;2023-02-27T08:41:52;102172.80;;;0.34
70831;BMP180;58451;51.550;7.208;2023-02-27T08:43:24;102177.40;;;0.40
70831;BMP180;58451;51.550;7.208;2023-02-27T08:44:56;102174.00;;;0.50
70831;BMP180;58451;51.550;7.208;2023-02-27T08:46:28;102173.20;;;0.52
70831;BMP180;58451;51.550;7.208;2023-02-27T08:48:00;102175.00;;;0.60
70831;BMP180;58451;51.550;7.208;2023-02-27T08:49:33;102175.40;;;0.60
70831;BMP180;58451;51.550;7.208;2023-02-27T08:51:05;102173.40;;;0.70
70831;BMP180;58451;51.550;7.208;2023-02-27T08:52:37;102172.00;;;0.70
70831;BMP180;58451;51.550;7.208;2023-02-27T08:54:10;102175.00;;;0.70
70831;BMP180;58451;51.550;7.208;2023-02-27T08:55:42;102175.40;;;0.78
70831;BMP180;58451;51.550;7.208;2023-02-27T08:57:13;102179.40;;;0.88
70831;BMP180;58451;51.550;7.208;2023-02-27T08:58:45;102177.80;;;0.90
70831;BMP180;58451;51.550;7.208;2023-02-27T09:00:18;102174.20;;;0.94
70831;BMP180;58451;51.550;7.208;2023-02-27T09:01:51;102180.40;;;1.00
70831;BMP180;58451;51.550;7.208;2023-02-27T09:03:22;102174.20;;;1.08
70831;BMP180;58451;51.550;7.208;2023-02-27T09:05:00;102177.40;;;1.10
70831;BMP180;58451;51.550;7.208;2023-02-27T09:06:34;102172.00;;;1.20
70831;BMP180;58451;51.550;7.208;2023-02-27T09:08:06;102172.40;;;1.20
70831;BMP180;58451;51.550;7.208;2023-02-27T09:09:38;102172.40;;;1.30
70831;BMP180;58451;51.550;7.208;2023-02-27T09:11:10;102167.80;;;1.30
70831;BMP180;58451;51.550;7.208;2023-02-27T09:12:42;102172.20;;;1.40
70831;BMP180;58451;51.550;7.208;2023-02-27T09:14:14;102175.00;;;1.44
70831;BMP180;58451;51.550;7.208;2023-02-27T09:15:46;102176.60;;;1.50
70831;BMP180;58451;51.550;7.208;2023-02-27T09:17:18;102174.60;;;1.60
70831;BMP180;58451;51.550;7.208;2023-02-27T09:18:50;102171.80;;;1.60
70831;BMP180;58451;51.550;7.208;2023-02-27T09:20:22;102171.60;;;1.70
70831;BMP180;58451;51.550;7.208;2023-02-27T09:21:54;102174.80;;;1.80
70831;BMP180;58451;51.550;7.208;2023-02-27T09:23:26;102174.00;;;1.90
70831;BMP180;58451;51.550;7.208;2023-02-27T09:25:01;102173.40;;;1.90
70831;BMP180;58451;51.550;7.208;2023-02-27T09:26:33;102171.20;;;1.90
70831;BMP180;58451;51.550;7.208;2023-02-27T09:28:16;102175.00;;;2.06
70831;BMP180;58451;51.550;7.208;2023-02-27T09:29:49;102174.00;;;2.20
70831;BMP180;58451;51.550;7.208;2023-02-27T09:31:26;102175.60;;;2.20
70831;BMP180;58451;51.550;7.208;2023-02-27T09:33:03;102167.40;;;2.30
70831;BMP180;58451;51.550;7.208;2023-02-27T09:34:35;102175.40;;;2.30
70831;BMP180;58451;51.550;7.208;2023-02-27T09:36:07;102170.40;;;2.32
70831;BMP180;58451;51.550;7.208;2023-02-27T09:37:41;102170.80;;;2.40
70831;BMP180;58451;51.550;7.208;2023-02-27T09:39:13;102167.40;;;2.50
70831;BMP180;58451;51.550;7.208;2023-02-27T09:40:56;102165.60;;;2.60
70831;BMP180;58451;51.550;7.208;2023-02-27T09:42:40;102164.60;;;2.60
70831;BMP180;58451;51.550;7.208;2023-02-27T09:44:31;102167.40;;;2.66
70831;BMP180;58451;51.550;7.208;2023-02-27T09:46:21;102164.80;;;2.70
70831;BMP180;58451;51.550;7.208;2023-02-27T09:48:25;102161.20;;;2.80
70831;BMP180;58451;51.550;7.208;2023-02-27T09:50:04;102163.60;;;2.80
70831;BMP180;58451;51.550;7.208;2023-02-27T09:51:38;102165.40;;;2.80
70831;BMP180;58451;51.550;7.208;2023-02-27T09:53:39;102166.40;;;2.90
70831;BMP180;58451;51.550;7.208;2023-02-27T09:55:18;102168.80;;;3.00
70831;BMP180;58451;51.550;7.208;2023-02-27T09:57:02;102163.20;;;3.02
70831;BMP180;58451;51.550;7.208;2023-02-27T10:00:46;102158.40;;;3.16
70831;BMP180;58451;51.550;7.208;2023-02-27T10:02:54;102167.20;;;3.20
70831;BMP180;58451;51.550;7.208;2023-02-27T10:12:42;102164.40;;;3.50
70831;BMP180;58451;51.550;7.208;2023-02-27T10:15:00;102160.40;;;3.54
70831;BMP180;58451;51.550;7.208;2023-02-27T10:16:33;102172.60;;;3.70
70831;BMP180;58451;51.550;7.208;2023-02-27T10:18:15;102175.00;;;3.70
70831;BMP180;58451;51.550;7.208;2023-02-27T10:20:16;102162.40;;;3.60